createdAt,value
2017-05-15T00:00:17.164Z,0
2017-05-15T00:01:16.572Z,0
2017-05-15T00:02:17.110Z,0
2017-05-15T00:03:16.930Z,0
2017-05-15T00:04:17.271Z,0
2017-05-15T00:05:16.989Z,0
2017-05-15T00:06:17.012Z,0
2017-05-15T00:07:17.295Z,0
2017-05-15T00:08:17.385Z,0
2017-05-15T00:09:17.099Z,0
2017-05-15T00:10:16.816Z,0
2017-05-15T00:11:17.494Z,0
2017-05-15T00:12:17.690Z,0
2017-05-15T00:13:17.208Z,0
2017-05-15T00:14:17.557Z,0
2017-05-15T00:15:17.577Z,0
2017-05-15T00:16:17.663Z,0
2017-05-15T00:17:17.565Z,0
2017-05-15T00:18:17.038Z,0
2017-05-15T00:19:17.379Z,0
2017-05-15T00:20:17.708Z,0
2017-05-15T00:21:17.114Z,0
2017-05-15T00:22:17.347Z,0
2017-05-15T00:23:17.807Z,0
2017-05-15T00:24:17.831Z,0
2017-05-15T00:25:17.544Z,0
2017-05-15T00:26:17.885Z,0
2017-05-15T00:27:17.854Z,0
2017-05-15T00:28:17.635Z,0
2017-05-15T00:29:17.656Z,0
2017-05-15T00:30:17.683Z,0
2017-05-15T00:31:18.020Z,0
2017-05-15T00:32:17.929Z,0
2017-05-15T00:33:17.766Z,0
2017-05-15T00:34:17.476Z,0
2017-05-15T00:35:18.134Z,0
2017-05-15T00:36:18.158Z,0
2017-05-15T00:37:17.762Z,0
2017-05-15T00:38:18.221Z,0
2017-05-15T00:39:17.926Z,0
2017-05-15T00:40:17.969Z,0
2017-05-15T00:41:18.001Z,0
2017-05-15T00:42:17.634Z,0
2017-05-15T00:43:18.035Z,0
2017-05-15T00:44:18.383Z,0
2017-05-15T00:45:18.411Z,0
2017-05-15T00:46:18.437Z,0
2017-05-15T00:47:18.398Z,0
2017-05-15T00:48:18.499Z,0
2017-05-15T00:49:18.523Z,0
2017-05-15T00:50:18.233Z,0
2017-05-15T00:51:18.260Z,0
2017-05-15T00:52:18.277Z,0
2017-05-15T00:53:18.320Z,0
2017-05-15T00:54:18.339Z,0
2017-05-15T00:55:18.687Z,0
2017-05-15T00:56:18.404Z,0
2017-05-15T00:57:18.680Z,0
2017-05-15T00:58:18.783Z,0
2017-05-15T00:59:18.807Z,0
2017-05-15T01:00:18.515Z,0
2017-05-15T01:01:18.536Z,0
2017-05-15T01:02:19.128Z,0
2017-05-15T01:03:18.278Z,0
2017-05-15T01:04:18.317Z,0
2017-05-15T01:05:18.339Z,0
2017-05-15T01:06:18.671Z,0
2017-05-15T01:07:18.702Z,0
2017-05-15T01:08:19.299Z,0
2017-05-15T01:09:18.767Z,0
2017-05-15T01:10:18.475Z,0
2017-05-15T01:11:19.133Z,0
2017-05-15T01:12:19.196Z,0
2017-05-15T01:13:19.127Z,0
2017-05-15T01:14:18.902Z,0
2017-05-15T01:15:19.234Z,0
2017-05-15T01:16:18.955Z,0
2017-05-15T01:17:18.977Z,0
2017-05-15T01:18:18.334Z,0
2017-05-15T01:19:18.726Z,0
2017-05-15T01:20:18.798Z,0
2017-05-15T01:21:18.776Z,0
2017-05-15T01:22:19.428Z,0
2017-05-15T01:23:19.041Z,0
2017-05-15T01:24:19.487Z,0
2017-05-15T01:25:19.207Z,0
2017-05-15T01:26:19.531Z,0
2017-05-15T01:27:19.568Z,0
2017-05-15T01:28:19.485Z,0
2017-05-15T01:29:19.626Z,0
2017-05-15T01:30:19.344Z,0
2017-05-15T01:31:19.676Z,0
2017-05-15T01:32:19.709Z,0
2017-05-15T01:33:19.989Z,0
2017-05-15T01:34:19.767Z,0
2017-05-15T01:35:19.795Z,0
2017-05-15T01:36:19.503Z,0
2017-05-15T01:37:18.912Z,0
2017-05-15T01:38:20.074Z,0
2017-05-15T01:39:19.282Z,0
2017-05-15T01:40:19.307Z,0
2017-05-15T01:41:19.951Z,0
2017-05-15T01:42:19.360Z,0
2017-05-15T01:43:19.641Z,0
2017-05-15T01:44:20.046Z,0
2017-05-15T01:45:19.763Z,0
2017-05-15T01:46:20.095Z,0
2017-05-15T01:47:19.811Z,0
2017-05-15T01:48:20.094Z,0
2017-05-15T01:49:19.922Z,0
2017-05-15T01:50:20.205Z,0
2017-05-15T01:51:19.919Z,0
2017-05-15T01:52:19.947Z,0
2017-05-15T01:53:20.549Z,0
2017-05-15T01:54:20.322Z,0
2017-05-15T01:55:20.035Z,0
2017-05-15T01:56:20.063Z,0
2017-05-15T01:57:20.081Z,0
2017-05-15T01:58:20.689Z,0
2017-05-15T01:59:20.145Z,0
2017-05-15T02:00:19.878Z,0
2017-05-15T02:01:20.512Z,0
2017-05-15T02:02:19.912Z,0
2017-05-15T02:03:20.762Z,0
2017-05-15T02:04:20.282Z,0
2017-05-15T02:05:20.310Z,0
2017-05-15T02:06:20.342Z,0
2017-05-15T02:07:20.364Z,0
2017-05-15T02:08:20.591Z,0
2017-05-15T02:09:20.777Z,0
2017-05-15T02:10:20.759Z,0
2017-05-15T02:11:20.788Z,0
2017-05-15T02:12:20.819Z,0
2017-05-15T02:13:20.724Z,0
2017-05-15T02:14:20.877Z,0
2017-05-15T02:15:20.582Z,0
2017-05-15T02:16:20.298Z,0
2017-05-15T02:17:20.954Z,0
2017-05-15T02:18:20.285Z,0
2017-05-15T02:19:21.006Z,0
2017-05-15T02:20:21.035Z,0
2017-05-15T02:21:21.067Z,0
2017-05-15T02:22:20.459Z,0
2017-05-15T02:23:21.315Z,0
2017-05-15T02:24:20.518Z,0
2017-05-15T02:25:20.858Z,0
2017-05-15T02:26:20.890Z,0
2017-05-15T02:27:21.236Z,0
2017-05-15T02:28:21.509Z,0
2017-05-15T02:29:20.974Z,0
2017-05-15T02:30:20.994Z,0
2017-05-15T02:31:21.020Z,0
2017-05-15T02:32:21.360Z,0
2017-05-15T02:33:21.656Z,0
2017-05-15T02:34:20.790Z,0
2017-05-15T02:35:21.130Z,0
2017-05-15T02:36:20.850Z,0
2017-05-15T02:37:21.191Z,0
2017-05-15T02:38:21.456Z,0
2017-05-15T02:39:21.249Z,0
2017-05-15T02:40:21.574Z,0
2017-05-15T02:41:21.307Z,0
2017-05-15T02:42:21.319Z,0
2017-05-15T02:43:21.872Z,0
2017-05-15T02:44:21.700Z,0
2017-05-15T02:45:21.719Z,0
2017-05-15T02:46:20.799Z,0
2017-05-15T02:47:21.772Z,0
2017-05-15T02:48:20.873Z,0
2017-05-15T02:49:21.790Z,0
2017-05-15T02:50:21.861Z,0
2017-05-15T02:51:21.895Z,0
2017-05-15T02:52:21.910Z,0
2017-05-15T02:53:21.309Z,0
2017-05-15T02:54:21.909Z,0
2017-05-15T02:55:21.685Z,0
2017-05-15T02:56:22.022Z,0
2017-05-15T02:57:22.050Z,0
2017-05-15T02:58:21.772Z,0
2017-05-15T02:59:21.710Z,0
2017-05-15T03:00:21.198Z,0
2017-05-15T03:01:21.847Z,0
2017-05-15T03:02:21.567Z,0
2017-05-15T03:03:21.904Z,0
2017-05-15T03:04:22.496Z,0
2017-05-15T03:05:21.957Z,0
2017-05-15T03:06:21.983Z,0
2017-05-15T03:07:22.323Z,0
2017-05-15T03:08:22.349Z,0
2017-05-15T03:09:22.022Z,0
2017-05-15T03:10:22.410Z,0
2017-05-15T03:11:22.122Z,0
2017-05-15T03:12:22.467Z,0
2017-05-15T03:13:22.181Z,0
2017-05-15T03:14:22.096Z,0
2017-05-15T03:15:22.545Z,0
2017-05-15T03:16:22.266Z,0
2017-05-15T03:17:22.288Z,0
2017-05-15T03:18:22.620Z,0
2017-05-15T03:19:21.967Z,0
2017-05-15T03:20:22.681Z,0
2017-05-15T03:21:22.402Z,0
2017-05-15T03:22:22.431Z,0
2017-05-15T03:23:22.754Z,0
2017-05-15T03:24:23.061Z,0
2017-05-15T03:25:22.505Z,0
2017-05-15T03:26:22.849Z,0
2017-05-15T03:27:22.563Z,0
2017-05-15T03:28:22.585Z,0
2017-05-15T03:29:23.185Z,0
2017-05-15T03:30:22.645Z,0
2017-05-15T03:31:22.990Z,0
2017-05-15T03:32:22.698Z,0
2017-05-15T03:33:22.108Z,0
2017-05-15T03:34:22.957Z,0
2017-05-15T03:35:22.461Z,0
2017-05-15T03:36:23.135Z,0
2017-05-15T03:37:23.150Z,0
2017-05-15T03:38:23.179Z,0
2017-05-15T03:39:23.465Z,0
2017-05-15T03:40:23.236Z,0
2017-05-15T03:41:23.253Z,0
2017-05-15T03:42:23.288Z,0
2017-05-15T03:43:23.323Z,0
2017-05-15T03:44:22.972Z,0
2017-05-15T03:45:23.069Z,0
2017-05-15T03:46:23.086Z,0
2017-05-15T03:47:23.424Z,0
2017-05-15T03:48:23.446Z,0
2017-05-15T03:49:23.420Z,0
2017-05-15T03:50:23.505Z,0
2017-05-15T03:51:23.534Z,0
2017-05-15T03:52:23.550Z,0
2017-05-15T03:53:23.582Z,0
2017-05-15T03:54:23.859Z,0
2017-05-15T03:55:23.336Z,0
2017-05-15T03:56:23.357Z,0
2017-05-15T03:57:23.387Z,0
2017-05-15T03:58:23.110Z,0
2017-05-15T03:59:23.697Z,0
2017-05-15T04:00:23.468Z,0
2017-05-15T04:01:23.488Z,0
2017-05-15T04:02:23.513Z,0
2017-05-15T04:03:23.554Z,0
2017-05-15T04:04:23.824Z,0
2017-05-15T04:05:23.604Z,0
2017-05-15T04:06:23.629Z,0
2017-05-15T04:07:23.350Z,0
2017-05-15T04:08:24.003Z,0
2017-05-15T04:09:24.352Z,0
2017-05-15T04:10:24.052Z,0
2017-05-15T04:11:24.081Z,0
2017-05-15T04:12:23.787Z,0
2017-05-15T04:13:23.514Z,0
2017-05-15T04:14:24.105Z,0
2017-05-15T04:15:23.868Z,0
2017-05-15T04:16:24.226Z,0
2017-05-15T04:17:23.937Z,0
2017-05-15T04:18:23.334Z,0
2017-05-15T04:19:23.673Z,0
2017-05-15T04:20:24.533Z,0
2017-05-15T04:21:24.357Z,0
2017-05-15T04:22:24.378Z,0
2017-05-15T04:23:24.419Z,0
2017-05-15T04:24:24.424Z,0
2017-05-15T04:25:24.408Z,0
2017-05-15T04:26:24.493Z,0
2017-05-15T04:27:24.514Z,0
2017-05-15T04:28:24.232Z,0
2017-05-15T04:29:24.271Z,0
2017-05-15T04:30:24.540Z,0
2017-05-15T04:31:24.624Z,0
2017-05-15T04:32:24.342Z,0
2017-05-15T04:33:24.379Z,0
2017-05-15T04:34:24.391Z,0
2017-05-15T04:35:24.679Z,0
2017-05-15T04:36:24.448Z,0
2017-05-15T04:37:24.789Z,0
2017-05-15T04:38:24.505Z,0
2017-05-15T04:39:24.535Z,0
2017-05-15T04:40:25.123Z,0
2017-05-15T04:41:24.277Z,0
2017-05-15T04:42:24.926Z,0
2017-05-15T04:43:24.646Z,0
2017-05-15T04:44:24.980Z,5
2017-05-15T04:45:24.956Z,5
2017-05-15T04:46:25.041Z,5
2017-05-15T04:47:25.063Z,5
2017-05-15T04:48:25.094Z,5
2017-05-15T04:49:24.491Z,5
2017-05-15T04:50:25.084Z,5
2017-05-15T04:51:25.187Z,5
2017-05-15T04:52:24.578Z,5
2017-05-15T04:53:24.938Z,5
2017-05-15T04:54:24.948Z,5
2017-05-15T04:55:24.908Z,5
2017-05-15T04:56:25.313Z,5
2017-05-15T04:57:24.719Z,5
2017-05-15T04:58:25.356Z,5
2017-05-15T04:59:24.761Z,5
2017-05-15T05:00:25.356Z,5
2017-05-15T05:01:24.821Z,5
2017-05-15T05:02:25.488Z,5
2017-05-15T05:03:24.879Z,5
2017-05-15T05:04:25.542Z,5
2017-05-15T05:05:25.507Z,5
2017-05-15T05:06:25.314Z,5
2017-05-15T05:07:24.665Z,5
2017-05-15T05:08:25.350Z,5
2017-05-15T05:09:25.701Z,5
2017-05-15T05:10:25.951Z,5
2017-05-15T05:11:25.724Z,5
2017-05-15T05:12:25.497Z,5
2017-05-15T05:13:25.782Z,5
2017-05-15T05:14:25.807Z,5
2017-05-15T05:15:25.496Z,5
2017-05-15T05:16:25.544Z,5
2017-05-15T05:17:25.578Z,5
2017-05-15T05:18:25.922Z,5
2017-05-15T05:19:25.335Z,5
2017-05-15T05:20:25.861Z,5
2017-05-15T05:21:25.680Z,5
2017-05-15T05:22:26.021Z,5
2017-05-15T05:23:25.117Z,5
2017-05-15T05:24:26.071Z,5
2017-05-15T05:25:26.295Z,5
2017-05-15T05:26:25.823Z,5
2017-05-15T05:27:25.849Z,5
2017-05-15T05:28:25.877Z,5
2017-05-15T05:29:25.586Z,5
2017-05-15T05:30:26.174Z,5
2017-05-15T05:31:25.956Z,5
2017-05-15T05:32:25.988Z,5
2017-05-15T05:33:26.327Z,5
2017-05-15T05:34:26.354Z,5
2017-05-15T05:35:25.999Z,5
2017-05-15T05:36:26.395Z,5
2017-05-15T05:37:26.116Z,5
2017-05-15T05:38:26.151Z,5
2017-05-15T05:39:26.179Z,5
2017-05-15T05:40:26.759Z,5
2017-05-15T05:41:25.907Z,5
2017-05-15T05:42:26.263Z,5
2017-05-15T05:43:25.969Z,5
2017-05-15T05:44:26.666Z,5
2017-05-15T05:45:26.902Z,5
2017-05-15T05:46:26.368Z,10
2017-05-15T05:47:26.392Z,10
2017-05-15T05:48:26.733Z,10
2017-05-15T05:49:26.773Z,10
2017-05-15T05:50:26.675Z,10
2017-05-15T05:51:26.187Z,10
2017-05-15T05:52:26.520Z,10
2017-05-15T05:53:26.565Z,10
2017-05-15T05:54:26.893Z,10
2017-05-15T05:55:27.175Z,10
2017-05-15T05:56:26.327Z,10
2017-05-15T05:57:26.675Z,10
2017-05-15T05:58:26.705Z,10
2017-05-15T05:59:27.041Z,10
2017-05-15T06:00:27.042Z,10
2017-05-15T06:01:26.471Z,10
2017-05-15T06:02:26.866Z,10
2017-05-15T06:03:27.152Z,10
2017-05-15T06:04:27.194Z,10
2017-05-15T06:05:27.137Z,10
2017-05-15T06:06:26.915Z,10
2017-05-15T06:07:26.943Z,10
2017-05-15T06:08:26.660Z,10
2017-05-15T06:09:27.322Z,10
2017-05-15T06:10:27.585Z,10
2017-05-15T06:11:27.055Z,10
2017-05-15T06:12:27.092Z,10
2017-05-15T06:13:27.420Z,10
2017-05-15T06:14:27.452Z,10
2017-05-15T06:15:27.725Z,10
2017-05-15T06:16:26.879Z,10
2017-05-15T06:17:27.223Z,10
2017-05-15T06:18:27.568Z,10
2017-05-15T06:19:27.277Z,10
2017-05-15T06:20:27.857Z,10
2017-05-15T06:21:27.020Z,10
2017-05-15T06:22:27.671Z,10
2017-05-15T06:23:27.699Z,10
2017-05-15T06:24:27.100Z,10
2017-05-15T06:25:27.945Z,10
2017-05-15T06:26:27.154Z,10
2017-05-15T06:27:27.498Z,10
2017-05-15T06:28:27.528Z,10
2017-05-15T06:29:27.548Z,10
2017-05-15T06:30:27.822Z,10
2017-05-15T06:31:27.290Z,10
2017-05-15T06:32:27.958Z,10
2017-05-15T06:33:27.655Z,10
2017-05-15T06:34:27.376Z,10
2017-05-15T06:35:27.962Z,10
2017-05-15T06:36:28.061Z,10
2017-05-15T06:37:28.103Z,10
2017-05-15T06:38:27.496Z,10
2017-05-15T06:39:28.148Z,10
2017-05-15T06:40:28.096Z,10
2017-05-15T06:41:27.882Z,10
2017-05-15T06:42:27.922Z,10
2017-05-15T06:43:27.931Z,10
2017-05-15T06:44:28.280Z,10
2017-05-15T06:45:28.188Z,10
2017-05-15T06:46:27.391Z,10
2017-05-15T06:47:27.419Z,10
2017-05-15T06:48:28.076Z,10
2017-05-15T06:49:28.100Z,10
2017-05-15T06:50:28.697Z,10
2017-05-15T06:51:28.149Z,10
2017-05-15T06:52:27.864Z,10
2017-05-15T06:53:27.899Z,10
2017-05-15T06:54:28.251Z,10
2017-05-15T06:55:28.825Z,10
2017-05-15T06:56:28.606Z,15
2017-05-15T06:57:28.638Z,15
2017-05-15T06:58:28.667Z,15
2017-05-15T06:59:28.739Z,15
2017-05-15T07:00:28.920Z,15
2017-05-15T07:01:28.121Z,20
2017-05-15T07:02:28.146Z,20
2017-05-15T07:03:28.494Z,20
2017-05-15T07:04:28.519Z,20
2017-05-15T07:05:29.104Z,20
2017-05-15T07:06:28.261Z,20
2017-05-15T07:07:28.910Z,20
2017-05-15T07:08:28.365Z,20
2017-05-15T07:09:28.971Z,20
2017-05-15T07:10:28.933Z,20
2017-05-15T07:11:29.021Z,20
2017-05-15T07:12:29.049Z,20
2017-05-15T07:13:29.074Z,20
2017-05-15T07:14:28.782Z,20
2017-05-15T07:15:28.704Z,20
2017-05-15T07:16:28.530Z,20
2017-05-15T07:17:28.564Z,20
2017-05-15T07:18:29.225Z,15
2017-05-15T07:19:28.935Z,15
2017-05-15T07:20:29.203Z,20
2017-05-15T07:21:28.992Z,15
2017-05-15T07:22:29.330Z,15
2017-05-15T07:23:29.354Z,15
2017-05-15T07:24:29.071Z,15
2017-05-15T07:25:29.347Z,20
2017-05-15T07:26:29.435Z,20
2017-05-15T07:27:29.149Z,20
2017-05-15T07:28:28.554Z,20
2017-05-15T07:29:28.583Z,20
2017-05-15T07:30:29.807Z,20
2017-05-15T07:31:28.951Z,20
2017-05-15T07:32:29.305Z,20
2017-05-15T07:33:29.005Z,20
2017-05-15T07:34:28.723Z,20
2017-05-15T07:35:29.943Z,20
2017-05-15T07:36:29.404Z,20
2017-05-15T07:37:29.740Z,20
2017-05-15T07:38:29.457Z,20
2017-05-15T07:39:29.798Z,15
2017-05-15T07:40:29.771Z,15
2017-05-15T07:41:29.532Z,15
2017-05-15T07:42:29.574Z,15
2017-05-15T07:43:29.284Z,15
2017-05-15T07:44:29.318Z,15
2017-05-15T07:45:29.578Z,15
2017-05-15T07:46:30.051Z,15
2017-05-15T07:47:29.711Z,15
2017-05-15T07:48:29.733Z,15
2017-05-15T07:49:29.766Z,15
2017-05-15T07:50:30.050Z,20
2017-05-15T07:51:30.136Z,20
2017-05-15T07:52:29.545Z,20
2017-05-15T07:53:30.185Z,20
2017-05-15T07:54:29.901Z,20
2017-05-15T07:55:30.491Z,20
2017-05-15T07:56:29.644Z,15
2017-05-15T07:57:29.673Z,20
2017-05-15T07:58:30.016Z,20
2017-05-15T07:59:30.363Z,20
2017-05-15T08:00:30.590Z,20
2017-05-15T08:01:30.416Z,20
2017-05-15T08:02:30.440Z,20
2017-05-15T08:03:30.476Z,20
2017-05-15T08:04:30.189Z,20
2017-05-15T08:05:30.716Z,20
2017-05-15T08:06:30.243Z,20
2017-05-15T08:07:30.272Z,20
2017-05-15T08:08:30.304Z,20
2017-05-15T08:09:29.703Z,20
2017-05-15T08:10:30.606Z,20
2017-05-15T08:11:30.374Z,20
2017-05-15T08:12:30.724Z,20
2017-05-15T08:13:30.437Z,20
2017-05-15T08:14:30.781Z,20
2017-05-15T08:15:31.053Z,20
2017-05-15T08:16:30.826Z,20
2017-05-15T08:17:30.548Z,20
2017-05-15T08:18:30.881Z,20
2017-05-15T08:19:30.609Z,20
2017-05-15T08:20:30.513Z,25
2017-05-15T08:21:30.658Z,25
2017-05-15T08:22:30.995Z,25
2017-05-15T08:23:30.733Z,25
2017-05-15T08:24:30.737Z,25
2017-05-15T08:25:31.327Z,25
2017-05-15T08:26:31.107Z,25
2017-05-15T08:27:31.128Z,25
2017-05-15T08:28:31.160Z,25
2017-05-15T08:29:30.885Z,25
2017-05-15T08:30:31.474Z,25
2017-05-15T08:31:31.247Z,25
2017-05-15T08:32:31.270Z,25
2017-05-15T08:33:31.309Z,25
2017-05-15T08:34:31.020Z,25
2017-05-15T08:35:31.301Z,25
2017-05-15T08:36:31.385Z,25
2017-05-15T08:37:30.791Z,25
2017-05-15T08:38:31.444Z,25
2017-05-15T08:39:30.859Z,25
2017-05-15T08:40:30.876Z,25
2017-05-15T08:41:31.153Z,25
2017-05-15T08:42:30.926Z,25
2017-05-15T08:43:31.267Z,25
2017-05-15T08:44:31.304Z,25
2017-05-15T08:45:31.640Z,25
2017-05-15T08:46:31.602Z,30
2017-05-15T08:47:31.694Z,30
2017-05-15T08:48:31.727Z,25
2017-05-15T08:49:31.120Z,25
2017-05-15T08:50:31.775Z,25
2017-05-15T08:51:31.477Z,25
2017-05-15T08:52:31.216Z,25
2017-05-15T08:53:30.926Z,25
2017-05-15T08:54:31.267Z,25
2017-05-15T08:55:31.613Z,25
2017-05-15T08:56:31.893Z,25
2017-05-15T08:57:31.658Z,25
2017-05-15T08:58:31.700Z,25
2017-05-15T08:59:31.714Z,25
2017-05-15T09:00:32.056Z,25
2017-05-15T09:01:31.661Z,25
2017-05-15T09:02:32.117Z,25
2017-05-15T09:03:31.823Z,30
2017-05-15T09:04:31.544Z,30
2017-05-15T09:05:31.889Z,30
2017-05-15T09:06:32.526Z,30
2017-05-15T09:07:31.941Z,30
2017-05-15T09:08:31.357Z,30
2017-05-15T09:09:32.306Z,30
2017-05-15T09:10:32.340Z,25
2017-05-15T09:11:32.257Z,25
2017-05-15T09:12:32.089Z,25
2017-05-15T09:13:31.801Z,25
2017-05-15T09:14:32.139Z,25
2017-05-15T09:15:32.480Z,25
2017-05-15T09:16:32.756Z,25
2017-05-15T09:17:32.224Z,25
2017-05-15T09:18:32.254Z,25
2017-05-15T09:19:32.597Z,30
2017-05-15T09:20:32.628Z,25
2017-05-15T09:21:32.541Z,30
2017-05-15T09:22:32.408Z,25
2017-05-15T09:23:32.397Z,25
2017-05-15T09:24:31.794Z,30
2017-05-15T09:25:32.760Z,30
2017-05-15T09:26:32.380Z,30
2017-05-15T09:27:32.516Z,30
2017-05-15T09:28:32.855Z,30
2017-05-15T09:29:32.886Z,25
2017-05-15T09:30:32.903Z,25
2017-05-15T09:31:33.176Z,25
2017-05-15T09:32:32.644Z,25
2017-05-15T09:33:32.989Z,25
2017-05-15T09:34:32.786Z,25
2017-05-15T09:35:32.423Z,25
2017-05-15T09:36:32.699Z,25
2017-05-15T09:37:32.785Z,25
2017-05-15T09:38:33.125Z,25
2017-05-15T09:39:32.842Z,30
2017-05-15T09:40:32.571Z,30
2017-05-15T09:41:33.100Z,30
2017-05-15T09:42:32.932Z,30
2017-05-15T09:43:32.962Z,30
2017-05-15T09:44:33.294Z,30
2017-05-15T09:45:32.700Z,30
2017-05-15T09:46:33.556Z,30
2017-05-15T09:47:32.760Z,30
2017-05-15T09:48:32.785Z,30
2017-05-15T09:49:32.818Z,30
2017-05-15T09:50:32.839Z,30
2017-05-15T09:51:33.375Z,30
2017-05-15T09:52:32.901Z,30
2017-05-15T09:53:33.548Z,30
2017-05-15T09:54:33.261Z,30
2017-05-15T09:55:32.979Z,30
2017-05-15T09:56:33.206Z,30
2017-05-15T09:57:33.351Z,30
2017-05-15T09:58:33.385Z,30
2017-05-15T09:59:33.413Z,30
2017-05-15T10:00:33.435Z,40
2017-05-15T10:01:33.654Z,45
2017-05-15T10:02:33.183Z,55
2017-05-15T10:03:33.524Z,55
2017-05-15T10:04:33.873Z,50
2017-05-15T10:05:33.578Z,50
2017-05-15T10:06:33.846Z,45
2017-05-15T10:07:33.630Z,40
2017-05-15T10:08:33.666Z,35
2017-05-15T10:09:33.696Z,35
2017-05-15T10:10:33.766Z,30
2017-05-15T10:11:34.259Z,25
2017-05-15T10:12:34.088Z,30
2017-05-15T10:13:34.120Z,35
2017-05-15T10:14:34.153Z,40
2017-05-15T10:15:34.177Z,40
2017-05-15T10:16:33.582Z,40
2017-05-15T10:17:33.497Z,40
2017-05-15T10:18:34.260Z,45
2017-05-15T10:19:33.986Z,45
2017-05-15T10:20:34.313Z,45
2017-05-15T10:21:34.033Z,40
2017-05-15T10:22:34.316Z,40
2017-05-15T10:23:33.824Z,30
2017-05-15T10:24:34.120Z,30
2017-05-15T10:25:34.149Z,35
2017-05-15T10:26:34.491Z,25
2017-05-15T10:27:34.183Z,25
2017-05-15T10:28:34.551Z,30
2017-05-15T10:29:33.948Z,40
2017-05-15T10:30:34.293Z,40
2017-05-15T10:31:34.628Z,35
2017-05-15T10:32:34.555Z,35
2017-05-15T10:33:34.692Z,35
2017-05-15T10:34:34.405Z,35
2017-05-15T10:35:34.744Z,30
2017-05-15T10:36:34.142Z,40
2017-05-15T10:37:34.686Z,40
2017-05-15T10:38:34.523Z,40
2017-05-15T10:39:34.861Z,40
2017-05-15T10:40:34.940Z,30
2017-05-15T10:41:34.594Z,25
2017-05-15T10:42:34.829Z,40
2017-05-15T10:43:34.029Z,40
2017-05-15T10:44:34.381Z,40
2017-05-15T10:45:35.033Z,40
2017-05-15T10:46:35.049Z,40
2017-05-15T10:47:35.286Z,40
2017-05-15T10:48:34.487Z,40
2017-05-15T10:49:34.832Z,45
2017-05-15T10:50:34.869Z,50
2017-05-15T10:51:35.205Z,50
2017-05-15T10:52:35.118Z,45
2017-05-15T10:53:34.327Z,40
2017-05-15T10:54:34.348Z,30
2017-05-15T10:55:34.691Z,45
2017-05-15T10:56:35.035Z,45
2017-05-15T10:57:34.949Z,50
2017-05-15T10:58:35.411Z,55
2017-05-15T10:59:34.816Z,60
2017-05-15T11:00:35.458Z,65
2017-05-15T11:01:35.178Z,55
2017-05-15T11:02:35.094Z,40
2017-05-15T11:03:35.246Z,55
2017-05-15T11:04:34.944Z,50
2017-05-15T11:05:35.600Z,50
2017-05-15T11:06:35.629Z,50
2017-05-15T11:07:35.561Z,55
2017-05-15T11:08:35.067Z,60
2017-05-15T11:09:35.406Z,35
2017-05-15T11:10:35.123Z,40
2017-05-15T11:11:35.468Z,85
2017-05-15T11:12:35.426Z,90
2017-05-15T11:13:35.830Z,100
2017-05-15T11:14:35.860Z,105
2017-05-15T11:15:35.571Z,105
2017-05-15T11:16:35.608Z,85
2017-05-15T11:17:35.526Z,45
2017-05-15T11:18:35.674Z,40
2017-05-15T11:19:35.690Z,40
2017-05-15T11:20:35.719Z,40
2017-05-15T11:21:35.752Z,35
2017-05-15T11:22:36.292Z,40
2017-05-15T11:23:36.122Z,35
2017-05-15T11:24:35.829Z,40
2017-05-15T11:25:35.868Z,55
2017-05-15T11:26:36.212Z,110
2017-05-15T11:27:35.930Z,85
2017-05-15T11:28:36.153Z,115
2017-05-15T11:29:35.983Z,130
2017-05-15T11:30:35.382Z,150
2017-05-15T11:31:36.356Z,240
2017-05-15T11:32:35.761Z,295
2017-05-15T11:33:36.606Z,295
2017-05-15T11:34:36.123Z,300
2017-05-15T11:35:35.834Z,310
2017-05-15T11:36:36.496Z,300
2017-05-15T11:37:36.216Z,290
2017-05-15T11:38:36.753Z,295
2017-05-15T11:39:36.591Z,320
2017-05-15T11:40:36.619Z,340
2017-05-15T11:41:36.653Z,365
2017-05-15T11:42:36.357Z,385
2017-05-15T11:43:36.641Z,130
2017-05-15T11:44:36.462Z,185
2017-05-15T11:45:36.139Z,345
2017-05-15T11:46:36.792Z,325
2017-05-15T11:47:36.501Z,335
2017-05-15T11:48:36.433Z,335
2017-05-15T11:49:36.888Z,365
2017-05-15T11:50:36.651Z,340
2017-05-15T11:51:36.944Z,90
2017-05-15T11:52:36.344Z,70
2017-05-15T11:53:36.834Z,65
2017-05-15T11:54:36.718Z,205
2017-05-15T11:55:37.061Z,300
2017-05-15T11:56:36.776Z,340
2017-05-15T11:57:36.504Z,390
2017-05-15T11:58:37.456Z,390
2017-05-15T11:59:36.561Z,365
2017-05-15T12:00:36.591Z,335
2017-05-15T12:01:37.254Z,315
2017-05-15T12:02:36.975Z,340
2017-05-15T12:03:37.512Z,390
2017-05-15T12:04:37.023Z,405
2017-05-15T12:05:37.388Z,285
2017-05-15T12:06:37.095Z,380
2017-05-15T12:07:36.815Z,155
2017-05-15T12:08:37.353Z,200
2017-05-15T12:09:37.186Z,340
2017-05-15T12:10:37.221Z,350
2017-05-15T12:11:37.558Z,170
2017-05-15T12:12:37.281Z,100
2017-05-15T12:13:37.885Z,385
2017-05-15T12:14:37.662Z,355
2017-05-15T12:15:37.690Z,290
2017-05-15T12:16:37.717Z,285
2017-05-15T12:17:37.752Z,290
2017-05-15T12:18:37.728Z,315
2017-05-15T12:19:37.513Z,400
2017-05-15T12:20:37.854Z,490
2017-05-15T12:21:37.879Z,550
2017-05-15T12:22:37.291Z,600
2017-05-15T12:23:38.153Z,505
2017-05-15T12:24:37.977Z,380
2017-05-15T12:25:38.010Z,260
2017-05-15T12:26:37.115Z,95
2017-05-15T12:27:38.079Z,95
2017-05-15T12:28:38.359Z,445
2017-05-15T12:29:37.517Z,125
2017-05-15T12:30:38.183Z,85
2017-05-15T12:31:37.898Z,85
2017-05-15T12:32:37.610Z,440
2017-05-15T12:33:38.155Z,425
2017-05-15T12:34:37.988Z,275
2017-05-15T12:35:38.029Z,315
2017-05-15T12:36:38.370Z,165
2017-05-15T12:37:38.098Z,255
2017-05-15T12:38:38.644Z,85
2017-05-15T12:39:38.156Z,85
2017-05-15T12:40:37.873Z,100
2017-05-15T12:41:37.914Z,130
2017-05-15T12:42:38.250Z,190
2017-05-15T12:43:38.791Z,555
2017-05-15T12:44:38.318Z,595
2017-05-15T12:45:38.669Z,630
2017-05-15T12:46:38.394Z,825
2017-05-15T12:47:38.739Z,485
2017-05-15T12:48:38.327Z,505
2017-05-15T12:49:38.795Z,605
2017-05-15T12:50:38.820Z,680
2017-05-15T12:51:38.538Z,105
2017-05-15T12:52:38.574Z,85
2017-05-15T12:53:39.173Z,110
2017-05-15T12:54:38.635Z,105
2017-05-15T12:55:38.985Z,100
2017-05-15T12:56:39.030Z,140
2017-05-15T12:57:38.738Z,590
2017-05-15T12:58:38.975Z,520
2017-05-15T12:59:39.120Z,230
2017-05-15T13:00:38.837Z,205
2017-05-15T13:01:38.865Z,555
2017-05-15T13:02:38.897Z,225
2017-05-15T13:03:38.610Z,90
2017-05-15T13:04:38.960Z,75
2017-05-15T13:05:39.312Z,80
2017-05-15T13:06:39.337Z,105
2017-05-15T13:07:38.746Z,390
2017-05-15T13:08:39.602Z,1290
2017-05-15T13:09:39.125Z,1185
2017-05-15T13:10:39.468Z,275
2017-05-15T13:11:39.181Z,650
2017-05-15T13:12:39.222Z,760
2017-05-15T13:13:39.190Z,855
2017-05-15T13:14:39.637Z,760
2017-05-15T13:15:39.313Z,675
2017-05-15T13:16:39.350Z,620
2017-05-15T13:17:39.697Z,540
2017-05-15T13:18:39.922Z,610
2017-05-15T13:19:39.788Z,630
2017-05-15T13:20:39.168Z,660
2017-05-15T13:21:39.521Z,620
2017-05-15T13:22:39.234Z,550
2017-05-15T13:23:40.092Z,510
2017-05-15T13:24:39.929Z,470
2017-05-15T13:25:39.331Z,475
2017-05-15T13:26:39.983Z,410
2017-05-15T13:27:40.018Z,415
2017-05-15T13:28:39.743Z,505
2017-05-15T13:29:40.028Z,510
2017-05-15T13:30:40.128Z,565
2017-05-15T13:31:40.156Z,75
2017-05-15T13:32:40.193Z,485
2017-05-15T13:33:40.225Z,75
2017-05-15T13:34:39.887Z,110
2017-05-15T13:35:39.975Z,80
2017-05-15T13:36:40.004Z,90
2017-05-15T13:37:40.358Z,110
2017-05-15T13:38:40.082Z,155
2017-05-15T13:39:40.682Z,210
2017-05-15T13:40:40.456Z,200
2017-05-15T13:41:40.177Z,190
2017-05-15T13:42:40.205Z,175
2017-05-15T13:43:40.558Z,175
2017-05-15T13:44:40.838Z,60
2017-05-15T13:45:40.308Z,45
2017-05-15T13:46:40.345Z,55
2017-05-15T13:47:40.685Z,160
2017-05-15T13:48:40.713Z,180
2017-05-15T13:49:40.695Z,185
2017-05-15T13:50:40.163Z,180
2017-05-15T13:51:40.817Z,180
2017-05-15T13:52:40.852Z,175
2017-05-15T13:53:40.581Z,170
2017-05-15T13:54:41.106Z,160
2017-05-15T13:55:40.947Z,150
2017-05-15T13:56:40.668Z,140
2017-05-15T13:57:41.013Z,135
2017-05-15T13:58:40.108Z,135
2017-05-15T13:59:41.277Z,135
2017-05-15T14:00:40.487Z,135
2017-05-15T14:01:41.148Z,130
2017-05-15T14:02:41.173Z,130
2017-05-15T14:03:40.906Z,130
2017-05-15T14:04:41.445Z,130
2017-05-15T14:05:41.291Z,135
2017-05-15T14:06:41.311Z,145
2017-05-15T14:07:41.036Z,145
2017-05-15T14:08:41.064Z,155
2017-05-15T14:09:41.305Z,150
2017-05-15T14:10:41.141Z,145
2017-05-15T14:11:41.485Z,140
2017-05-15T14:12:41.204Z,140
2017-05-15T14:13:41.549Z,140
2017-05-15T14:14:41.516Z,135
2017-05-15T14:15:41.615Z,130
2017-05-15T14:16:41.643Z,120
2017-05-15T14:17:41.371Z,120
2017-05-15T14:18:41.400Z,125
2017-05-15T14:19:41.626Z,125
2017-05-15T14:20:41.467Z,125
2017-05-15T14:21:41.812Z,120
2017-05-15T14:22:41.837Z,125